KFXY/FXY METAR and TAF weather

Enter ICAO airport designator
Station Type Date Time Source
KFXY METAR 2021/09/23 16:55 UTC NOAA

KFXY 231655Z AUTO 19006KT 10SM CLR 20/03 A3011 RMK AO2


Station Type Date Time Source
KFXY Decoded METAR 2021/09/23 16:55 UTC NOAA

Station name not available
Sep 23, 2021 - 12:55 PM EDT / 2021.09.23 1655 UTC
Wind: from the S (190 degrees) at 7 MPH (6 KT):0
Visibility: 10 mile(s):0
Sky conditions: clear
Temperature: 68 F (20 C)
Dew Point: 37 F (3 C)
Relative Humidity: 32%
Pressure (altimeter): 30.11 in. Hg (1019 hPa)
ob: KFXY 231655Z AUTO 19006KT 10SM CLR 20/03 A3011 RMK AO2
cycle: 17

Station Type Date Time Source
KFXY TAF UTC NOAA

Error!

Example: see airport list